Time;durP1;ratioP1;P1;durP2;ratioP2;P2;SDS_P1;SDS_P2;PMS_P1;PMS_P2;Temp;Humidity;BMP_temperature;BMP_pressure;BME280_temperature;BME280_humidity;BME280_pressure;Samples;Min_cycle;Max_cycle;Signal;HPM_P1;HPM_P2
2023/08/12 00:00:11;;;;;;;10.95;1.35;;;;;;;;;;5055810;28;20372;-68
2023/08/12 00:02:39;;;;;;;6.13;4.20;;;;;;;;;;5058945;28;20094;-68
2023/08/12 00:05:06;;;;;;;2.90;1.73;;;;;;;;;;5070149;28;20031;-69
2023/08/12 00:07:33;;;;;;;2.38;1.48;;;;;;;;;;5070533;28;20507;-69
2023/08/12 00:10:03;;;;;;;4.97;1.40;;;;;;;;;;5070094;28;20036;-67
2023/08/12 00:12:30;;;;;;;2.05;1.52;;;;;;;;;;5072688;28;20025;-68
2023/08/12 00:14:56;;;;;;;1.13;1.02;;;;;;;;;;5075536;28;20035;-66
2023/08/12 00:17:23;;;;;;;2.33;1.23;;;;;;;;;;5060909;28;20475;-68
2023/08/12 00:19:50;;;;;;;3.38;1.52;;;;;;;;;;5055590;28;20385;-66
2023/08/12 00:22:17;;;;;;;2.97;1.65;;;;;;;;;;5055373;28;20021;-67
2023/08/12 00:24:44;;;;;;;3.53;1.90;;;;;;;;;;5052848;28;20039;-64
2023/08/12 00:27:11;;;;;;;3.67;2.35;;;;;;;;;;5050028;28;20021;-67
2023/08/12 00:29:38;;;;;;;5.78;3.17;;;;;;;;;;5050133;28;20079;-67
2023/08/12 00:32:05;;;;;;;4.35;2.45;;;;;;;;;;5050196;28;20029;-66
2023/08/12 00:34:31;;;;;;;4.00;2.53;;;;;;;;;;5061298;28;20128;-66
2023/08/12 00:36:58;;;;;;;8.02;1.85;;;;;;;;;;5075106;28;20471;-65
2023/08/12 00:39:25;;;;;;;7.30;1.85;;;;;;;;;;5074903;28;20024;-65
2023/08/12 00:41:52;;;;;;;5.82;2.28;;;;;;;;;;5074409;28;20020;-66
2023/08/12 00:44:19;;;;;;;14.38;3.42;;;;;;;;;;5074600;28;20031;-67
2023/08/12 00:46:45;;;;;;;3.40;2.03;;;;;;;;;;5072454;28;20047;-67
2023/08/12 00:49:13;;;;;;;2.47;1.45;;;;;;;;;;5069427;28;20052;-67
2023/08/12 00:51:41;;;;;;;15.32;2.40;;;;;;;;;;5069454;28;20029;-66
2023/08/12 00:54:09;;;;;;;3.67;1.33;;;;;;;;;;5069607;28;20025;-67
2023/08/12 00:56:36;;;;;;;2.33;1.38;;;;;;;;;;5070681;28;20189;-67
2023/08/12 00:59:04;;;;;;;2.45;1.95;;;;;;;;;;5074696;28;20387;-67
2023/08/12 01:01:31;;;;;;;2.88;1.80;;;;;;;;;;5073411;28;20724;-65
2023/08/12 01:03:58;;;;;;;5.68;2.17;;;;;;;;;;5074478;28;20047;-67
2023/08/12 01:06:25;;;;;;;3.67;2.00;;;;;;;;;;5056789;28;20427;-67
2023/08/12 01:08:51;;;;;;;2.78;1.60;;;;;;;;;;5072463;28;20113;-67
2023/08/12 01:11:26;;;;;;;2.53;1.47;;;;;;;;;;5069141;28;20082;-67
2023/08/12 01:13:59;;;;;;;14.47;2.30;;;;;;;;;;5069380;28;20175;-67
2023/08/12 01:16:29;;;;;;;4.53;2.27;;;;;;;;;;5068750;28;20036;-65
2023/08/12 01:18:56;;;;;;;1.42;1.20;;;;;;;;;;5070184;28;20031;-65
2023/08/12 01:21:25;;;;;;;4.20;1.80;;;;;;;;;;5073865;28;20111;-65
2023/08/12 01:23:52;;;;;;;9.00;3.38;;;;;;;;;;5072763;28;20070;-64
2023/08/12 01:26:19;;;;;;;4.00;1.77;;;;;;;;;;5073742;28;20028;-65
2023/08/12 01:28:46;;;;;;;3.37;2.03;;;;;;;;;;5074015;28;20078;-65
2023/08/12 01:31:16;;;;;;;5.83;2.33;;;;;;;;;;5072198;28;20029;-64
2023/08/12 01:34:01;;;;;;;2.63;1.93;;;;;;;;;;5068666;28;20032;-65
2023/08/12 01:36:29;;;;;;;3.37;1.97;;;;;;;;;;5058185;28;20032;-65
2023/08/12 01:38:57;;;;;;;6.87;2.27;;;;;;;;;;5068746;28;20048;-64
2023/08/12 01:41:24;;;;;;;5.07;1.43;;;;;;;;;;5070113;28;20024;-65
2023/08/12 01:43:51;;;;;;;7.23;1.40;;;;;;;;;;5073795;28;20024;-64
2023/08/12 01:46:18;;;;;;;3.07;2.13;;;;;;;;;;5073718;28;20102;-64
2023/08/12 01:48:45;;;;;;;2.20;1.67;;;;;;;;;;5073707;28;20116;-65
2023/08/12 01:51:12;;;;;;;13.70;2.37;;;;;;;;;;5073799;28;20024;-64
2023/08/12 01:53:39;;;;;;;4.53;2.57;;;;;;;;;;5071121;28;20066;-65
2023/08/12 01:56:05;;;;;;;5.13;3.53;;;;;;;;;;5068448;28;20036;-64
2023/08/12 01:58:32;;;;;;;3.50;2.37;;;;;;;;;;5068122;28;20020;-65
2023/08/12 02:00:59;;;;;;;6.23;2.97;;;;;;;;;;5068185;28;20020;-64
2023/08/12 02:03:26;;;;;;;4.03;2.27;;;;;;;;;;5069570;28;20083;-64
2023/08/12 02:05:53;;;;;;;3.40;2.23;;;;;;;;;;5073053;28;20051;-65
2023/08/12 02:08:19;;;;;;;3.67;2.10;;;;;;;;;;5073492;28;20063;-64
2023/08/12 02:10:46;;;;;;;4.73;2.50;;;;;;;;;;5072656;28;20029;-65
2023/08/12 02:13:13;;;;;;;4.83;2.70;;;;;;;;;;5072582;28;20494;-64
2023/08/12 02:15:40;;;;;;;2.90;1.97;;;;;;;;;;5071623;28;20095;-64
2023/08/12 02:18:06;;;;;;;7.23;2.83;;;;;;;;;;5067692;28;20115;-64
2023/08/12 02:20:33;;;;;;;4.33;2.60;;;;;;;;;;5067839;28;20358;-64
2023/08/12 02:23:00;;;;;;;4.93;2.50;;;;;;;;;;5067360;28;20047;-64
2023/08/12 02:25:27;;;;;;;6.27;3.30;;;;;;;;;;5068422;28;20025;-64
2023/08/12 02:27:54;;;;;;;4.47;2.93;;;;;;;;;;5072319;28;20020;-65
2023/08/12 02:30:21;;;;;;;4.77;3.23;;;;;;;;;;5072904;28;20514;-64
2023/08/12 02:32:47;;;;;;;4.87;3.10;;;;;;;;;;5072504;28;20029;-64
2023/08/12 02:35:14;;;;;;;5.83;3.90;;;;;;;;;;5072640;28;20472;-65
2023/08/12 02:37:41;;;;;;;10.73;3.87;;;;;;;;;;5071796;28;20046;-64
2023/08/12 02:40:08;;;;;;;9.93;3.20;;;;;;;;;;5067119;28;20040;-65
2023/08/12 02:42:35;;;;;;;5.20;2.53;;;;;;;;;;5056536;28;20059;-64
2023/08/12 02:45:02;;;;;;;6.43;3.43;;;;;;;;;;5066943;28;20028;-64
2023/08/12 02:47:29;;;;;;;9.97;3.03;;;;;;;;;;5067050;28;20043;-64
2023/08/12 02:49:55;;;;;;;7.00;2.70;;;;;;;;;;5072492;28;20025;-64
2023/08/12 02:52:22;;;;;;;6.43;3.20;;;;;;;;;;5054490;28;20055;-64
2023/08/12 02:54:49;;;;;;;6.53;2.37;;;;;;;;;;5072433;28;20135;-64
2023/08/12 02:57:16;;;;;;;3.17;1.97;;;;;;;;;;5072017;28;20044;-64
2023/08/12 02:59:42;;;;;;;5.73;2.57;;;;;;;;;;5053535;28;20033;-64
2023/08/12 03:02:09;;;;;;;3.87;2.67;;;;;;;;;;5067040;28;20044;-64
2023/08/12 03:04:36;;;;;;;4.27;2.30;;;;;;;;;;5066818;28;20032;-65
2023/08/12 03:07:03;;;;;;;4.73;1.97;;;;;;;;;;5055153;28;20032;-65
2023/08/12 03:09:30;;;;;;;4.50;2.87;;;;;;;;;;5047087;28;20036;-64
2023/08/12 03:12:01;;;;;;;13.20;2.73;;;;;;;;;;5071377;28;20020;-64
2023/08/12 03:14:30;;;;;;;3.40;1.93;;;;;;;;;;5072350;28;20028;-65
2023/08/12 03:16:56;;;;;;;8.87;2.37;;;;;;;;;;5072007;28;20028;-65
2023/08/12 03:19:23;;;;;;;7.63;2.77;;;;;;;;;;5072064;28;20544;-64
2023/08/12 03:21:50;;;;;;;5.77;2.63;;;;;;;;;;5068627;28;20066;-66
2023/08/12 03:24:17;;;;;;;3.10;2.17;;;;;;;;;;5065771;28;20029;-65
2023/08/12 03:26:43;;;;;;;2.97;2.03;;;;;;;;;;5049029;28;20032;-66
2023/08/12 03:29:10;;;;;;;4.67;2.33;;;;;;;;;;5067032;28;20494;-67
2023/08/12 03:31:37;;;;;;;18.43;2.40;;;;;;;;;;5066417;28;20379;-66
2023/08/12 03:34:04;;;;;;;5.50;3.17;;;;;;;;;;5071096;28;20032;-66
2023/08/12 03:36:31;;;;;;;6.77;3.13;;;;;;;;;;5072265;28;20028;-66
2023/08/12 03:38:57;;;;;;;5.73;2.80;;;;;;;;;;5072086;28;20094;-69
2023/08/12 03:41:24;;;;;;;5.07;2.60;;;;;;;;;;5072164;28;20550;-68
2023/08/12 03:43:51;;;;;;;3.33;2.10;;;;;;;;;;5072073;28;20047;-70
2023/08/12 03:46:18;;;;;;;8.07;3.40;;;;;;;;;;5067014;28;20017;-69
2023/08/12 03:48:45;;;;;;;4.00;2.90;;;;;;;;;;5066671;28;20035;-70
2023/08/12 03:51:11;;;;;;;8.50;2.37;;;;;;;;;;5066319;28;20025;-68
2023/08/12 03:53:38;;;;;;;5.03;3.07;;;;;;;;;;5066891;28;20111;-69
2023/08/12 03:56:05;;;;;;;5.23;2.60;;;;;;;;;;5070882;28;20021;-66
2023/08/12 03:58:32;;;;;;;9.40;3.43;;;;;;;;;;5072070;28;20103;-69
2023/08/12 04:00:59;;;;;;;2.87;1.93;;;;;;;;;;5072014;28;20383;-69
2023/08/12 04:03:26;;;;;;;6.27;2.77;;;;;;;;;;5053912;28;20036;-69
2023/08/12 04:05:53;;;;;;;2.77;2.10;;;;;;;;;;5071672;28;20020;-69
2023/08/12 04:08:20;;;;;;;8.20;2.37;;;;;;;;;;5067083;28;20028;-68
2023/08/12 04:10:48;;;;;;;10.47;2.67;;;;;;;;;;5066622;28;20040;-68
2023/08/12 04:13:18;;;;;;;11.07;3.03;;;;;;;;;;5066691;28;20070;-66
2023/08/12 04:15:52;;;;;;;6.30;2.50;;;;;;;;;;5048623;28;20060;-70
2023/08/12 04:18:23;;;;;;;7.75;3.08;;;;;;;;;;5070648;28;20117;-68
2023/08/12 04:20:50;;;;;;;5.03;2.70;;;;;;;;;;5071408;28;20082;-69
2023/08/12 04:23:17;;;;;;;8.83;2.83;;;;;;;;;;5071522;28;20199;-68
2023/08/12 04:25:45;;;;;;;4.30;2.67;;;;;;;;;;5071607;28;20491;-67
2023/08/12 04:28:12;;;;;;;6.07;3.03;;;;;;;;;;5071152;28;20552;-66
2023/08/12 04:30:47;;;;;;;4.07;2.60;;;;;;;;;;5067165;28;20046;-66
2023/08/12 04:33:15;;;;;;;4.20;2.77;;;;;;;;;;5066572;28;20032;-66
2023/08/12 04:35:42;;;;;;;5.63;2.67;;;;;;;;;;5067956;28;20039;-66
2023/08/12 04:38:08;;;;;;;4.33;3.00;;;;;;;;;;5069992;28;20032;-66
2023/08/12 04:40:35;;;;;;;4.40;2.80;;;;;;;;;;5074203;28;20555;-66
2023/08/12 04:43:02;;;;;;;6.07;2.60;;;;;;;;;;5074990;28;20511;-65
2023/08/12 04:45:29;;;;;;;5.13;2.43;;;;;;;;;;5074884;28;20021;-65
2023/08/12 04:47:56;;;;;;;4.90;2.77;;;;;;;;;;5075092;28;20024;-65
2023/08/12 04:50:23;;;;;;;5.13;2.97;;;;;;;;;;5074977;28;20021;-66
2023/08/12 04:52:50;;;;;;;3.87;2.80;;;;;;;;;;5070892;28;20033;-65
2023/08/12 04:55:17;;;;;;;11.33;2.43;;;;;;;;;;5069672;28;20043;-65
2023/08/12 04:57:43;;;;;;;3.77;2.60;;;;;;;;;;5069866;28;20498;-65
2023/08/12 05:00:10;;;;;;;7.33;2.50;;;;;;;;;;5051085;28;20048;-66
2023/08/12 05:02:37;;;;;;;3.80;2.33;;;;;;;;;;5073133;28;20502;-66
2023/08/12 05:05:04;;;;;;;2.97;2.23;;;;;;;;;;5074877;28;20390;-65
2023/08/12 05:07:33;;;;;;;5.17;3.13;;;;;;;;;;5074282;28;20020;-66
2023/08/12 05:10:00;;;;;;;4.57;2.47;;;;;;;;;;5074683;28;20036;-65
2023/08/12 05:12:27;;;;;;;4.53;2.33;;;;;;;;;;5074849;28;20052;-65
2023/08/12 05:14:54;;;;;;;9.73;3.90;;;;;;;;;;5070578;28;20047;-66
2023/08/12 05:17:21;;;;;;;23.77;3.57;;;;;;;;;;5069071;28;20032;-65
2023/08/12 05:19:47;;;;;;;4.60;2.53;;;;;;;;;;5069300;28;20017;-65
2023/08/12 05:22:14;;;;;;;5.93;2.23;;;;;;;;;;5069192;28;20085;-66
2023/08/12 05:24:41;;;;;;;4.37;2.60;;;;;;;;;;5072402;28;20032;-65
2023/08/12 05:27:08;;;;;;;5.33;3.40;;;;;;;;;;5056286;28;20028;-65
2023/08/12 05:29:35;;;;;;;4.37;2.73;;;;;;;;;;5074306;28;20028;-65
2023/08/12 05:32:01;;;;;;;4.57;2.87;;;;;;;;;;5074349;28;20491;-66
2023/08/12 05:34:28;;;;;;;3.43;2.37;;;;;;;;;;5073783;28;20549;-65
2023/08/12 05:36:55;;;;;;;8.80;2.90;;;;;;;;;;5070735;28;20478;-65
2023/08/12 05:39:22;;;;;;;2.70;2.03;;;;;;;;;;5068709;28;20103;-65
2023/08/12 05:41:49;;;;;;;4.47;3.40;;;;;;;;;;5068515;28;20028;-65
2023/08/12 05:44:16;;;;;;;3.73;2.53;;;;;;;;;;5068647;28;20029;-65
2023/08/12 05:46:42;;;;;;;3.67;2.73;;;;;;;;;;5069860;28;20040;-65
2023/08/12 05:49:09;;;;;;;4.47;2.63;;;;;;;;;;5073658;28;20395;-65
2023/08/12 05:51:38;;;;;;;5.97;2.57;;;;;;;;;;5054923;28;20024;-65
2023/08/12 05:54:05;;;;;;;7.70;2.57;;;;;;;;;;5072350;28;20115;-65
2023/08/12 05:56:32;;;;;;;2.67;1.80;;;;;;;;;;5073192;28;20025;-66
2023/08/12 05:58:58;;;;;;;5.00;2.87;;;;;;;;;;5070615;28;20035;-65
2023/08/12 06:01:25;;;;;;;7.97;2.50;;;;;;;;;;5067106;28;20081;-65
2023/08/12 06:03:52;;;;;;;6.57;3.33;;;;;;;;;;5068158;28;20050;-65
2023/08/12 06:06:19;;;;;;;5.20;2.63;;;;;;;;;;5068316;28;20025;-65
2023/08/12 06:08:45;;;;;;;2.70;2.00;;;;;;;;;;5052494;28;20375;-65
2023/08/12 06:11:12;;;;;;;9.13;3.23;;;;;;;;;;5073284;28;20102;-65
2023/08/12 06:13:39;;;;;;;7.53;2.37;;;;;;;;;;5073282;28;20475;-65
2023/08/12 06:16:06;;;;;;;3.23;2.20;;;;;;;;;;5073534;28;20507;-65
2023/08/12 06:18:33;;;;;;;7.73;2.67;;;;;;;;;;5073343;28;20021;-65
2023/08/12 06:21:00;;;;;;;6.33;2.37;;;;;;;;;;5070891;28;20044;-65
2023/08/12 06:23:27;;;;;;;6.20;2.93;;;;;;;;;;5067692;28;20017;-65
2023/08/12 06:25:54;;;;;;;3.47;2.13;;;;;;;;;;5049813;28;20020;-65
2023/08/12 06:28:20;;;;;;;3.43;2.30;;;;;;;;;;5067562;28;20039;-66
2023/08/12 06:30:48;;;;;;;6.83;2.63;;;;;;;;;;5069843;28;20056;-65
2023/08/12 06:33:15;;;;;;;4.93;3.07;;;;;;;;;;5073227;28;20425;-65
2023/08/12 06:35:42;;;;;;;4.90;2.50;;;;;;;;;;5073026;28;20037;-65
2023/08/12 06:38:13;;;;;;;3.30;2.37;;;;;;;;;;5072944;28;20028;-66
2023/08/12 06:40:40;;;;;;;3.63;2.53;;;;;;;;;;5072886;28;20024;-65
2023/08/12 06:43:08;;;;;;;5.57;2.73;;;;;;;;;;5069766;28;20514;-65
2023/08/12 06:45:35;;;;;;;3.23;2.40;;;;;;;;;;5067563;28;20447;-65
2023/08/12 06:48:02;;;;;;;5.37;3.17;;;;;;;;;;5067419;28;20032;-65
2023/08/12 06:50:30;;;;;;;11.87;2.90;;;;;;;;;;5049477;28;20025;-65
2023/08/12 06:52:57;;;;;;;4.87;2.00;;;;;;;;;;5069274;28;20028;-65
2023/08/12 06:55:24;;;;;;;5.50;3.23;;;;;;;;;;5072756;28;20060;-65
2023/08/12 06:57:50;;;;;;;7.37;3.33;;;;;;;;;;5072101;28;20020;-65
2023/08/12 07:00:17;;;;;;;9.77;2.87;;;;;;;;;;5072226;28;20017;-65
2023/08/12 07:02:44;;;;;;;5.23;2.80;;;;;;;;;;5072580;28;20061;-65
2023/08/12 07:05:11;;;;;;;3.83;2.73;;;;;;;;;;5070534;28;20043;-65
2023/08/12 07:07:38;;;;;;;3.83;2.63;;;;;;;;;;5049244;28;20032;-65
2023/08/12 07:10:06;;;;;;;5.27;3.03;;;;;;;;;;5067153;28;20028;-65
2023/08/12 07:12:32;;;;;;;3.70;2.70;;;;;;;;;;5067143;28;20032;-65
2023/08/12 07:14:59;;;;;;;3.87;2.70;;;;;;;;;;5068050;28;20028;-65
2023/08/12 07:17:26;;;;;;;3.77;2.00;;;;;;;;;;5072048;28;20155;-65
2023/08/12 07:19:53;;;;;;;3.43;2.63;;;;;;;;;;5072374;28;20031;-64
2023/08/12 07:22:20;;;;;;;6.43;3.53;;;;;;;;;;5072432;28;20029;-65
2023/08/12 07:24:47;;;;;;;3.40;2.57;;;;;;;;;;5072465;28;20029;-65
2023/08/12 07:27:13;;;;;;;4.80;2.70;;;;;;;;;;5070525;28;20048;-66
2023/08/12 07:29:40;;;;;;;4.83;2.97;;;;;;;;;;5066899;28;20020;-65
2023/08/12 07:32:07;;;;;;;8.57;3.67;;;;;;;;;;5066809;28;20023;-65
2023/08/12 07:34:34;;;;;;;2.93;2.23;;;;;;;;;;5066825;28;20040;-65
2023/08/12 07:37:00;;;;;;;5.20;3.23;;;;;;;;;;5049519;28;20106;-64
2023/08/12 07:39:27;;;;;;;3.60;2.67;;;;;;;;;;5072361;28;20024;-64
2023/08/12 07:41:54;;;;;;;4.50;3.13;;;;;;;;;;5072191;28;20070;-64
2023/08/12 07:44:21;;;;;;;6.40;3.47;;;;;;;;;;5072135;28;20024;-64
2023/08/12 07:46:49;;;;;;;7.20;2.93;;;;;;;;;;5071372;28;20029;-65
2023/08/12 07:49:16;;;;;;;8.60;2.87;;;;;;;;;;5070788;28;20020;-65
2023/08/12 07:51:43;;;;;;;3.53;2.73;;;;;;;;;;5066680;28;20095;-64
2023/08/12 07:54:10;;;;;;;3.97;2.87;;;;;;;;;;5066797;28;20032;-65
2023/08/12 07:56:37;;;;;;;3.53;1.97;;;;;;;;;;5066808;28;20452;-64
2023/08/12 07:59:04;;;;;;;8.87;3.13;;;;;;;;;;5067173;28;20082;-65
2023/08/12 08:01:30;;;;;;;4.03;2.27;;;;;;;;;;5071879;28;20024;-65
2023/08/12 08:03:57;;;;;;;4.80;3.40;;;;;;;;;;5071697;28;20021;-64
2023/08/12 08:06:24;;;;;;;4.83;2.63;;;;;;;;;;5072060;28;20027;-64
2023/08/12 08:08:51;;;;;;;8.53;3.20;;;;;;;;;;5071736;28;20013;-65
2023/08/12 08:11:17;;;;;;;3.57;2.43;;;;;;;;;;5073787;28;20035;-64
2023/08/12 08:13:44;;;;;;;4.67;2.67;;;;;;;;;;5070305;28;20090;-65
2023/08/12 08:16:11;;;;;;;3.03;2.40;;;;;;;;;;5070578;28;20032;-65
2023/08/12 08:18:38;;;;;;;6.23;3.13;;;;;;;;;;5070228;28;20021;-65
2023/08/12 08:21:04;;;;;;;5.20;2.07;;;;;;;;;;5070265;28;20028;-65
2023/08/12 08:23:31;;;;;;;3.50;2.53;;;;;;;;;;5057709;28;20621;-65
2023/08/12 08:25:58;;;;;;;2.93;2.33;;;;;;;;;;5075329;28;20021;-65
2023/08/12 08:28:25;;;;;;;4.73;3.13;;;;;;;;;;5075508;28;20502;-64
2023/08/12 08:30:51;;;;;;;6.27;3.23;;;;;;;;;;5075439;28;20074;-65
2023/08/12 08:33:18;;;;;;;2.40;1.80;;;;;;;;;;5074890;28;20021;-65
2023/08/12 08:35:45;;;;;;;5.27;2.90;;;;;;;;;;5069709;28;20077;-64
2023/08/12 08:38:12;;;;;;;3.47;2.50;;;;;;;;;;5070036;28;20029;-64
2023/08/12 08:40:38;;;;;;;4.67;3.00;;;;;;;;;;5069233;28;20103;-64
2023/08/12 08:43:08;;;;;;;4.50;3.33;;;;;;;;;;5069426;28;20031;-64
2023/08/12 08:45:35;;;;;;;3.90;2.80;;;;;;;;;;5075200;28;20052;-64
2023/08/12 08:48:02;;;;;;;6.00;3.57;;;;;;;;;;5075187;28;20503;-64
2023/08/12 08:50:31;;;;;;;6.57;3.73;;;;;;;;;;5074893;28;20020;-64
2023/08/12 08:52:57;;;;;;;4.60;3.23;;;;;;;;;;5075018;28;20099;-64
2023/08/12 08:55:24;;;;;;;3.87;2.77;;;;;;;;;;5074545;28;20029;-64
2023/08/12 08:57:51;;;;;;;4.70;3.23;;;;;;;;;;5051520;28;20078;-64
2023/08/12 09:00:18;;;;;;;3.90;2.60;;;;;;;;;;5069645;28;20025;-64
2023/08/12 09:02:48;;;;;;;3.40;2.53;;;;;;;;;;5069526;28;20021;-64
2023/08/12 09:05:15;;;;;;;5.20;2.43;;;;;;;;;;5069343;28;20028;-64
2023/08/12 09:07:43;;;;;;;3.10;2.03;;;;;;;;;;5074611;28;20028;-64
2023/08/12 09:10:11;;;;;;;2.50;1.80;;;;;;;;;;5074508;28;20029;-64
2023/08/12 09:12:38;;;;;;;2.17;1.70;;;;;;;;;;5074747;28;20029;-64
2023/08/12 09:15:06;;;;;;;3.87;2.40;;;;;;;;;;5074150;28;20055;-64
2023/08/12 09:17:33;;;;;;;5.30;2.00;;;;;;;;;;5074144;28;20024;-64
2023/08/12 09:20:00;;;;;;;3.03;1.87;;;;;;;;;;5069299;28;20025;-64
2023/08/12 09:22:27;;;;;;;3.77;2.10;;;;;;;;;;5068897;28;20024;-64
2023/08/12 09:25:00;;;;;;;3.83;2.17;;;;;;;;;;5069306;28;20029;-64
2023/08/12 09:27:27;;;;;;;6.07;2.70;;;;;;;;;;5069032;28;20025;-65
2023/08/12 09:29:59;;;;;;;3.77;2.23;;;;;;;;;;5055913;28;20028;-64
2023/08/12 09:32:26;;;;;;;2.30;1.83;;;;;;;;;;5073655;28;20028;-64
2023/08/12 09:34:54;;;;;;;2.93;1.73;;;;;;;;;;5073789;28;20161;-64
2023/08/12 09:37:22;;;;;;;4.37;2.63;;;;;;;;;;5074203;28;20032;-64
2023/08/12 09:39:49;;;;;;;3.40;2.40;;;;;;;;;;5074211;28;20021;-64
2023/08/12 09:42:16;;;;;;;4.03;2.83;;;;;;;;;;5068689;28;20025;-64
2023/08/12 09:44:44;;;;;;;5.00;2.30;;;;;;;;;;5068907;28;20532;-64
2023/08/12 09:47:11;;;;;;;5.20;3.17;;;;;;;;;;5068401;28;20029;-64
2023/08/12 09:49:40;;;;;;;3.20;2.17;;;;;;;;;;5068192;28;20016;-65
2023/08/12 09:52:07;;;;;;;2.07;1.53;;;;;;;;;;5073647;28;20020;-64
2023/08/12 09:54:34;;;;;;;9.83;2.50;;;;;;;;;;5073801;28;20509;-64
2023/08/12 09:57:02;;;;;;;4.57;2.80;;;;;;;;;;5073952;28;20422;-65
2023/08/12 09:59:32;;;;;;;4.67;2.33;;;;;;;;;;5073110;28;20557;-64
2023/08/12 10:01:59;;;;;;;5.83;2.60;;;;;;;;;;5073663;28;20034;-64
2023/08/12 10:04:28;;;;;;;5.60;3.40;;;;;;;;;;5068070;28;20094;-64
2023/08/12 10:06:55;;;;;;;6.40;2.83;;;;;;;;;;5068245;28;20435;-64
2023/08/12 10:09:22;;;;;;;3.30;2.10;;;;;;;;;;5068217;28;20059;-64
2023/08/12 10:11:50;;;;;;;3.57;2.27;;;;;;;;;;5068241;28;20063;-64
2023/08/12 10:14:17;;;;;;;3.10;1.90;;;;;;;;;;5072950;28;20029;-64
2023/08/12 10:16:47;;;;;;;2.80;2.17;;;;;;;;;;5072861;28;20047;-65
2023/08/12 10:19:15;;;;;;;3.73;2.53;;;;;;;;;;5073001;28;20371;-64
2023/08/12 10:21:43;;;;;;;2.83;2.03;;;;;;;;;;5073235;28;20364;-64
2023/08/12 10:24:12;;;;;;;2.90;1.77;;;;;;;;;;5073154;28;20379;-64
2023/08/12 10:26:38;;;;;;;3.87;1.57;;;;;;;;;;5049987;28;20020;-64
2023/08/12 10:29:05;;;;;;;3.37;2.00;;;;;;;;;;5067599;28;20046;-64
2023/08/12 10:31:32;;;;;;;2.17;1.47;;;;;;;;;;5068060;28;20052;-64
2023/08/12 10:33:59;;;;;;;5.03;2.07;;;;;;;;;;5066739;28;20032;-64
2023/08/12 10:36:27;;;;;;;2.30;1.60;;;;;;;;;;5072406;28;20100;-64
2023/08/12 10:38:54;;;;;;;3.77;1.27;;;;;;;;;;5055145;28;20413;-64
2023/08/12 10:41:25;;;;;;;1.47;0.97;;;;;;;;;;5072791;28;20036;-64
2023/08/12 10:44:02;;;;;;;3.90;1.07;;;;;;;;;;5072590;28;20094;-64
2023/08/12 10:46:29;;;;;;;2.63;1.63;;;;;;;;;;5054513;28;20408;-64
2023/08/12 10:49:03;;;;;;;2.27;1.50;;;;;;;;;;5067334;28;20096;-64
2023/08/12 10:51:46;;;;;;;1.53;1.13;;;;;;;;;;5067554;28;20100;-64
2023/08/12 10:54:17;;;;;;;1.63;1.33;;;;;;;;;;5067210;28;20118;-64
2023/08/12 10:57:05;;;;;;;3.67;1.63;;;;;;;;;;5067366;28;20031;-64
2023/08/12 10:59:47;;;;;;;4.27;1.77;;;;;;;;;;5072395;28;20055;-64
2023/08/12 11:02:17;;;;;;;1.37;1.03;;;;;;;;;;5072609;28;20054;-64
2023/08/12 11:04:44;;;;;;;0.90;0.73;;;;;;;;;;5072130;28;20069;-64
2023/08/12 11:07:19;;;;;;;0.90;0.70;;;;;;;;;;5072670;28;20017;-64
2023/08/12 11:09:46;;;;;;;2.22;1.33;;;;;;;;;;5069759;28;20048;-64
2023/08/12 11:12:18;;;;;;;2.50;1.53;;;;;;;;;;5067239;28;20055;-64
2023/08/12 11:14:49;;;;;;;1.10;0.80;;;;;;;;;;5067261;28;20082;-64
2023/08/12 11:17:16;;;;;;;1.77;1.30;;;;;;;;;;5066993;28;20036;-64
2023/08/12 11:19:43;;;;;;;5.17;1.40;;;;;;;;;;5068253;28;20028;-64
2023/08/12 11:22:12;;;;;;;2.07;1.17;;;;;;;;;;5071201;28;20118;-64
2023/08/12 11:24:42;;;;;;;3.53;1.43;;;;;;;;;;5072315;28;20039;-64
2023/08/12 11:27:11;;;;;;;2.83;1.50;;;;;;;;;;5072235;28;20428;-64
2023/08/12 11:29:38;;;;;;;4.90;2.13;;;;;;;;;;5072055;28;20117;-64
2023/08/12 11:32:06;;;;;;;5.33;2.03;;;;;;;;;;5069390;28;20021;-64
2023/08/12 11:34:33;;;;;;;4.23;2.77;;;;;;;;;;5066478;28;20043;-64
2023/08/12 11:37:01;;;;;;;3.03;2.03;;;;;;;;;;5066871;28;20020;-64
2023/08/12 11:39:28;;;;;;;5.30;1.90;;;;;;;;;;5066850;28;20048;-64
2023/08/12 11:41:54;;;;;;;2.50;1.73;;;;;;;;;;5069088;28;20032;-63
2023/08/12 11:44:24;;;;;;;3.00;1.83;;;;;;;;;;5072042;28;20490;-63
2023/08/12 11:46:51;;;;;;;2.77;2.10;;;;;;;;;;5075714;28;20031;-64
2023/08/12 11:49:18;;;;;;;2.43;1.63;;;;;;;;;;5076335;28;20062;-63
2023/08/12 11:51:46;;;;;;;4.07;1.80;;;;;;;;;;5076210;28;20052;-64
2023/08/12 11:54:13;;;;;;;1.47;1.23;;;;;;;;;;5072833;28;20052;-65
2023/08/12 11:56:40;;;;;;;2.40;1.33;;;;;;;;;;5070990;28;20028;-62
2023/08/12 11:59:07;;;;;;;1.73;1.27;;;;;;;;;;5070705;28;20379;-63
2023/08/12 12:01:34;;;;;;;1.70;1.20;;;;;;;;;;5070453;28;20025;-64
2023/08/12 12:04:01;;;;;;;2.77;1.90;;;;;;;;;;5072668;28;20100;-63
2023/08/12 12:06:31;;;;;;;2.50;1.77;;;;;;;;;;5075807;28;20481;-64
2023/08/12 12:09:04;;;;;;;2.90;2.13;;;;;;;;;;5075656;28;20483;-63
2023/08/12 12:11:31;;;;;;;2.17;1.53;;;;;;;;;;5057868;28;20021;-63
2023/08/12 12:14:00;;;;;;;1.90;1.37;;;;;;;;;;5075766;28;20035;-64
2023/08/12 12:16:36;;;;;;;2.93;1.60;;;;;;;;;;5073035;28;20054;-63
2023/08/12 12:19:05;;;;;;;5.13;1.70;;;;;;;;;;5070617;28;20024;-64
2023/08/12 12:21:40;;;;;;;4.47;1.80;;;;;;;;;;5070412;28;20487;-63
2023/08/12 12:24:07;;;;;;;3.67;1.85;;;;;;;;;;5069865;28;20119;-63
2023/08/12 12:26:35;;;;;;;4.37;1.87;;;;;;;;;;5072626;28;20095;-63
2023/08/12 12:29:03;;;;;;;7.40;2.23;;;;;;;;;;5057512;28;20086;-64
2023/08/12 12:31:30;;;;;;;1.17;1.07;;;;;;;;;;5075274;28;20013;-64
2023/08/12 12:33:57;;;;;;;3.23;1.67;;;;;;;;;;5075434;28;20038;-63
2023/08/12 12:36:24;;;;;;;4.47;1.80;;;;;;;;;;5075419;28;20422;-63
2023/08/12 12:38:51;;;;;;;2.30;1.67;;;;;;;;;;5072286;28;20452;-63
2023/08/12 12:41:17;;;;;;;5.17;1.80;;;;;;;;;;5051476;28;20128;-64
2023/08/12 12:43:44;;;;;;;1.53;1.17;;;;;;;;;;5069587;28;20024;-64
2023/08/12 12:46:11;;;;;;;2.93;1.70;;;;;;;;;;5069900;28;20115;-63
2023/08/12 12:48:38;;;;;;;4.60;2.20;;;;;;;;;;5072186;28;20064;-64
2023/08/12 12:51:05;;;;;;;4.53;1.20;;;;;;;;;;5075233;28;20044;-63
2023/08/12 12:53:31;;;;;;;1.23;1.13;;;;;;;;;;5075059;28;20025;-63
2023/08/12 12:56:03;;;;;;;1.13;0.93;;;;;;;;;;5074517;28;20511;-64
2023/08/12 12:58:32;;;;;;;1.87;1.30;;;;;;;;;;5074838;28;20016;-64
2023/08/12 13:01:00;;;;;;;2.67;1.50;;;;;;;;;;5071449;28;20025;-63
2023/08/12 13:03:27;;;;;;;3.47;1.50;;;;;;;;;;5069589;28;20475;-64
2023/08/12 13:05:54;;;;;;;4.13;1.83;;;;;;;;;;5069541;28;20115;-63
2023/08/12 13:08:20;;;;;;;6.20;3.20;;;;;;;;;;5069554;28;20021;-64
2023/08/12 13:10:47;;;;;;;4.20;2.13;;;;;;;;;;5071693;28;20526;-64
2023/08/12 13:13:17;;;;;;;1.60;1.20;;;;;;;;;;5074711;28;20560;-64
2023/08/12 13:15:45;;;;;;;2.63;1.70;;;;;;;;;;5074398;28;20039;-64
2023/08/12 13:18:12;;;;;;;2.27;1.63;;;;;;;;;;5074477;28;20040;-64
2023/08/12 13:20:39;;;;;;;1.13;0.90;;;;;;;;;;5074556;28;20506;-64
2023/08/12 13:23:06;;;;;;;2.23;1.57;;;;;;;;;;5071623;28;20032;-64
2023/08/12 13:25:33;;;;;;;4.77;2.00;;;;;;;;;;5069022;28;20024;-64
2023/08/12 13:28:04;;;;;;;2.90;1.93;;;;;;;;;;5069090;28;20597;-64
2023/08/12 13:30:31;;;;;;;8.13;2.27;;;;;;;;;;5068730;28;20464;-64
2023/08/12 13:32:58;;;;;;;2.23;1.60;;;;;;;;;;5070702;28;20108;-64
2023/08/12 13:35:24;;;;;;;3.53;1.73;;;;;;;;;;5074120;28;20111;-64
2023/08/12 13:37:51;;;;;;;4.20;2.20;;;;;;;;;;5074236;28;20025;-64
2023/08/12 13:40:18;;;;;;;24.50;1.87;;;;;;;;;;5074164;28;20025;-64
2023/08/12 13:42:50;;;;;;;5.20;2.13;;;;;;;;;;5074055;28;20122;-64
2023/08/12 13:45:16;;;;;;;1.90;1.33;;;;;;;;;;5070724;28;20465;-64
2023/08/12 13:47:43;;;;;;;2.20;1.67;;;;;;;;;;5050064;28;20029;-64
2023/08/12 13:50:10;;;;;;;3.57;2.23;;;;;;;;;;5068678;28;20029;-64
2023/08/12 13:52:37;;;;;;;3.20;2.13;;;;;;;;;;5068594;28;20025;-64
2023/08/12 13:55:04;;;;;;;1.47;1.23;;;;;;;;;;5070925;28;20042;-65
2023/08/12 13:57:31;;;;;;;1.60;1.10;;;;;;;;;;5073708;28;20032;-65
2023/08/12 13:59:58;;;;;;;2.10;1.47;;;;;;;;;;5073776;28;20025;-64
2023/08/12 14:02:25;;;;;;;3.27;1.90;;;;;;;;;;5055843;28;20097;-64
2023/08/12 14:04:52;;;;;;;4.00;1.87;;;;;;;;;;5073325;28;20111;-64
2023/08/12 14:07:20;;;;;;;2.87;1.53;;;;;;;;;;5070262;28;20025;-64
2023/08/12 14:09:47;;;;;;;1.97;1.27;;;;;;;;;;5067871;28;20495;-64
2023/08/12 14:12:13;;;;;;;2.30;1.63;;;;;;;;;;5067899;28;20028;-65
2023/08/12 14:14:40;;;;;;;1.83;1.30;;;;;;;;;;5068259;28;20093;-65
2023/08/12 14:17:07;;;;;;;2.40;1.67;;;;;;;;;;5070100;28;20031;-65
2023/08/12 14:19:34;;;;;;;2.30;1.53;;;;;;;;;;5073266;28;20539;-65
2023/08/12 14:22:00;;;;;;;1.80;1.40;;;;;;;;;;5073150;28;20396;-64
2023/08/12 14:24:27;;;;;;;4.20;2.40;;;;;;;;;;5073147;28;20066;-65
2023/08/12 14:26:54;;;;;;;1.97;1.40;;;;;;;;;;5073342;28;20021;-65
2023/08/12 14:29:21;;;;;;;3.53;2.17;;;;;;;;;;5070647;28;20390;-65
2023/08/12 14:31:47;;;;;;;12.73;2.60;;;;;;;;;;5067476;28;20032;-66
2023/08/12 14:34:14;;;;;;;5.20;1.93;;;;;;;;;;5049426;28;20060;-66
2023/08/12 14:36:41;;;;;;;4.27;2.37;;;;;;;;;;5067886;28;20027;-66
2023/08/12 14:39:08;;;;;;;7.20;1.60;;;;;;;;;;5069410;28;20051;-66
2023/08/12 14:41:34;;;;;;;2.67;1.90;;;;;;;;;;5072844;28;20024;-66
2023/08/12 14:44:01;;;;;;;11.15;2.70;;;;;;;;;;5072565;28;20048;-66